createdAt,value
2019-06-10T06:26:48.086Z,11836.00
2019-06-10T06:27:47.985Z,11172.00
2019-06-10T06:28:47.942Z,11516.00
2019-06-10T06:29:47.923Z,12328.00
2019-06-10T06:30:47.854Z,12868.00
2019-06-10T06:31:47.819Z,13272.00
2019-06-10T06:32:47.840Z,13280.00
2019-06-10T06:33:47.729Z,12300.00
2019-06-10T06:34:47.683Z,11500.00
2019-06-10T06:35:47.638Z,11644.00
2019-06-10T06:36:47.597Z,12384.00
2019-06-10T06:37:47.561Z,13260.00
2019-06-10T06:38:47.573Z,12748.00
2019-06-10T06:39:47.470Z,11036.00
2019-06-10T06:40:47.428Z,9992.00
2019-06-10T06:41:47.392Z,9692.00
2019-06-10T06:42:47.344Z,9728.00
2019-06-10T06:43:47.304Z,9836.00
2019-06-10T06:44:47.288Z,10060.00
2019-06-10T06:45:47.222Z,10124.00
2019-06-10T06:46:47.179Z,10360.00
2019-06-10T06:47:47.135Z,10536.00
2019-06-10T06:48:47.143Z,10352.00
2019-06-10T06:49:47.051Z,9780.00
2019-06-10T06:51:01.964Z,8972.00
2019-06-10T06:51:54.621Z,8132.00
2019-06-10T06:53:18.887Z,7872.00
2019-06-10T06:53:51.907Z,7944.00
2019-06-10T06:54:46.872Z,7780.00
2019-06-10T06:55:46.802Z,7152.00
2019-06-10T06:56:46.757Z,6380.00
2019-06-10T06:57:46.729Z,6260.00
2019-06-10T06:58:46.674Z,7892.00
2019-06-10T06:59:46.630Z,11248.00
2019-06-10T07:01:00.113Z,15200.00
2019-06-10T07:01:46.547Z,18400.00
2019-06-10T07:02:46.506Z,18976.00
2019-06-10T07:03:46.459Z,17856.00
2019-06-10T07:04:46.420Z,16616.00
2019-06-10T07:05:46.410Z,14416.00
2019-06-10T07:06:46.336Z,13304.00
2019-06-10T07:07:46.294Z,14488.00
2019-06-10T07:09:00.277Z,17408.00
2019-06-10T07:09:46.208Z,20928.00
2019-06-10T07:10:46.168Z,22112.00
2019-06-10T07:11:46.212Z,20768.00
2019-06-10T07:12:46.084Z,19712.00
2019-06-10T07:13:46.145Z,18752.00
2019-06-10T07:14:46.001Z,17888.00
2019-06-10T07:15:47.324Z,18304.00
2019-06-10T07:16:46.778Z,18240.00
2019-06-10T07:17:46.245Z,18592.00
2019-06-10T07:18:50.094Z,20032.00
2019-06-10T07:19:45.924Z,22048.00
2019-06-10T07:20:45.989Z,23584.00
2019-06-10T07:22:06.644Z,23104.00
2019-06-10T07:22:46.586Z,23840.00
2019-06-10T07:23:47.036Z,24448.00
2019-06-10T07:24:47.484Z,27168.00
2019-06-10T07:25:47.587Z,29568.00
2019-06-10T07:26:51.133Z,29824.00
2019-06-10T07:27:46.949Z,30240.00
2019-06-10T07:28:47.439Z,30176.00
2019-06-10T07:29:47.179Z,29152.00
2019-06-10T07:30:51.053Z,27232.00
2019-06-10T07:31:49.325Z,26720.00
2019-06-10T07:32:47.312Z,26880.00
2019-06-10T07:33:47.211Z,28512.00
2019-06-10T07:34:46.937Z,30528.00
2019-06-10T07:35:45.467Z,34208.00
2019-06-10T07:36:45.490Z,33344.00
2019-06-10T07:37:46.102Z,32064.00
2019-06-10T07:38:48.690Z,30720.00
2019-06-10T07:39:45.400Z,30656.00
2019-06-10T07:40:45.776Z,29984.00
2019-06-10T07:41:47.764Z,29696.00
2019-06-10T07:42:45.437Z,30144.00
2019-06-10T07:43:49.428Z,30112.00
2019-06-10T07:44:45.308Z,32928.00
2019-06-10T07:45:47.798Z,30496.00
2019-06-10T07:46:45.725Z,30464.00
2019-06-10T07:47:45.673Z,31168.00
2019-06-10T07:48:47.845Z,29536.00
2019-06-10T07:49:45.638Z,28768.00
2019-06-10T07:50:45.832Z,29024.00
2019-06-10T07:51:46.303Z,26880.00
2019-06-10T07:52:46.564Z,27744.00
2019-06-10T07:53:46.585Z,28160.00
2019-06-10T07:54:45.341Z,28000.00
2019-06-10T07:55:46.399Z,28928.00
2019-06-10T07:56:49.843Z,28160.00
2019-06-10T07:57:45.566Z,29536.00
2019-06-10T07:58:47.488Z,33792.00
2019-06-10T07:59:45.824Z,35360.00
2019-06-10T08:00:48.036Z,32320.00
2019-06-10T08:01:50.974Z,28864.00
2019-06-10T08:02:45.892Z,28288.00
2019-06-10T08:03:46.422Z,28192.00
2019-06-10T08:04:45.835Z,28704.00
2019-06-10T08:05:46.042Z,29632.00
2019-06-10T08:06:45.700Z,29536.00
2019-06-10T08:07:47.053Z,29152.00
2019-06-10T08:08:45.394Z,27936.00
2019-06-10T08:09:45.579Z,26400.00
2019-06-10T08:10:46.066Z,25248.00
2019-06-10T08:11:46.542Z,25088.00
2019-06-10T08:12:44.799Z,41120.00
2019-06-10T08:13:46.160Z,24160.00
2019-06-10T08:14:45.300Z,23584.00
2019-06-10T08:15:45.980Z,22880.00
2019-06-10T08:16:46.501Z,22208.00
2019-06-10T08:17:45.626Z,21568.00
2019-06-10T08:19:14.240Z,20992.00
2019-06-10T08:19:49.070Z,20608.00
2019-06-10T08:20:45.073Z,20768.00
2019-06-10T08:21:45.918Z,20768.00
2019-06-10T08:22:50.971Z,20576.00
2019-06-10T08:23:45.636Z,20832.00
2019-06-10T08:24:45.210Z,21792.00
2019-06-10T08:25:46.402Z,23616.00
2019-06-10T08:26:45.272Z,25568.00
2019-06-10T08:27:45.389Z,28288.00
2019-06-10T08:28:46.466Z,30784.00
2019-06-10T08:29:46.132Z,30432.00
2019-06-10T08:30:44.722Z,27456.00
2019-06-10T08:31:47.584Z,26272.00
2019-06-10T08:32:45.282Z,26784.00
2019-06-10T08:33:46.180Z,27136.00
2019-06-10T08:34:45.941Z,28608.00
2019-06-10T08:35:53.618Z,31104.00
2019-06-10T08:36:47.115Z,35456.00
2019-06-10T08:37:43.301Z,35808.00
2019-06-10T08:38:45.045Z,36128.00
2019-06-10T08:39:44.341Z,38752.00
2019-06-10T08:40:45.012Z,35008.00
2019-06-10T08:41:45.569Z,34592.00
2019-06-10T08:42:44.131Z,33824.00
2019-06-10T08:43:45.268Z,35040.00
2019-06-10T08:44:43.962Z,79904.00
2019-06-10T08:45:44.157Z,33952.00
2019-06-10T08:46:44.990Z,26784.00
2019-06-10T08:47:45.664Z,25248.00
2019-06-10T08:48:45.869Z,28544.00
2019-06-10T08:49:44.562Z,30880.00
2019-06-10T08:50:46.547Z,36416.00
2019-06-10T08:51:45.457Z,24864.00
2019-06-10T08:52:56.860Z,24000.00
2019-06-10T08:53:45.025Z,26080.00
2019-06-10T08:54:47.215Z,29216.00
2019-06-10T08:55:44.118Z,27104.00
2019-06-10T08:56:46.844Z,25568.00
2019-06-10T08:57:44.127Z,32864.00
2019-06-10T08:58:45.738Z,38272.00
2019-06-10T08:59:44.811Z,46304.00
2019-06-10T09:00:45.064Z,37920.00
2019-06-10T09:01:45.984Z,29792.00
2019-06-10T09:02:45.197Z,33056.00
2019-06-10T09:03:45.477Z,38240.00
2019-06-10T09:04:45.585Z,32128.00
2019-06-10T09:05:46.050Z,36160.00
2019-06-10T09:06:46.317Z,47872.00
2019-06-10T09:07:45.866Z,93024.00
2019-06-10T09:08:45.445Z,77184.00
2019-06-10T09:09:45.776Z,72832.00
2019-06-10T09:10:45.621Z,53536.00
2019-06-10T09:11:46.882Z,59168.00
2019-06-10T09:12:45.470Z,44608.00
2019-06-10T09:13:43.788Z,44960.00
2019-06-10T09:14:44.023Z,64000.00
2019-06-10T09:15:43.770Z,67360.00
2019-06-10T09:16:44.392Z,121888.00
2019-06-10T09:17:44.384Z,97248.00
2019-06-10T09:18:44.463Z,101056.00
2019-06-10T09:19:42.070Z,84160.00
2019-06-10T09:20:44.926Z,137056.00
2019-06-10T09:21:45.930Z,52064.00
2019-06-10T09:22:42.243Z,60480.00
2019-06-10T09:23:43.206Z,100928.00
2019-06-10T09:24:42.698Z,54272.00
2019-06-10T09:25:45.245Z,55168.00
2019-06-10T09:26:44.480Z,51744.00
2019-06-10T09:27:42.584Z,75456.00
2019-06-10T09:28:45.114Z,58592.00
2019-06-10T09:29:44.667Z,56000.00
2019-06-10T09:30:46.858Z,137824.00
2019-06-10T09:31:45.622Z,116000.00
2019-06-10T09:32:42.629Z,69632.00
2019-06-10T09:33:42.727Z,59520.00
2019-06-10T09:34:43.056Z,46656.00
2019-06-10T09:35:44.118Z,46880.00
2019-06-10T09:36:42.231Z,72064.00
2019-06-10T09:37:42.655Z,58688.00
2019-06-10T09:38:41.785Z,58432.00
2019-06-10T09:39:43.721Z,73792.00
2019-06-10T09:40:41.778Z,87840.00
2019-06-10T09:41:47.583Z,81440.00
2019-06-10T09:42:45.586Z,59040.00
2019-06-10T09:43:42.668Z,53984.00
2019-06-10T09:44:45.106Z,53536.00
2019-06-10T09:45:41.865Z,51296.00
2019-06-10T09:46:44.071Z,58240.00
2019-06-10T09:47:44.478Z,46912.00
2019-06-10T09:48:44.362Z,39648.00
2019-06-10T09:49:41.292Z,35712.00
2019-06-10T09:50:44.603Z,32992.00
2019-06-10T09:51:44.465Z,39744.00
2019-06-10T09:52:41.583Z,38592.00
2019-06-10T09:53:48.120Z,39232.00
2019-06-10T09:54:42.935Z,37440.00
2019-06-10T09:55:41.651Z,36672.00
2019-06-10T09:56:42.780Z,35936.00
2019-06-10T09:57:41.283Z,35584.00
2019-06-10T09:58:40.795Z,29600.00
2019-06-10T09:59:41.330Z,27712.00
2019-06-10T10:00:41.818Z,25088.00
2019-06-10T10:01:41.519Z,22272.00
2019-06-10T10:02:44.951Z,20352.00
2019-06-10T10:03:41.964Z,19520.00
2019-06-10T10:04:40.967Z,19264.00
2019-06-10T10:05:43.148Z,18688.00
2019-06-10T10:06:41.450Z,17344.00
2019-06-10T10:07:42.151Z,15284.00
2019-06-10T10:08:41.353Z,14184.00
2019-06-10T10:09:42.091Z,13700.00
2019-06-10T10:10:39.701Z,13892.00
2019-06-10T10:11:42.421Z,14212.00
2019-06-10T10:12:39.633Z,14888.00
2019-06-10T10:13:42.455Z,15804.00
2019-06-10T10:14:39.578Z,15944.00
2019-06-10T10:15:39.519Z,15236.00
2019-06-10T10:16:39.485Z,14992.00
2019-06-10T10:17:39.457Z,14996.00
2019-06-10T10:18:39.454Z,15716.00
2019-06-10T10:19:39.379Z,17408.00
2019-06-10T10:20:39.369Z,20064.00
2019-06-10T10:21:41.330Z,24320.00
2019-06-10T10:22:39.280Z,30592.00
2019-06-10T10:23:52.534Z,37440.00
2019-06-10T10:24:39.212Z,41792.00
2019-06-10T10:25:39.173Z,47840.00
2019-06-10T10:26:39.165Z,54016.00
2019-06-10T10:27:39.101Z,62272.00
2019-06-10T10:28:39.067Z,72736.00
2019-06-10T10:29:39.030Z,68448.00
2019-06-10T10:30:39.032Z,80288.00
2019-06-10T10:31:38.960Z,151552.00
2019-06-10T10:32:38.927Z,128096.00
2019-06-10T10:33:38.892Z,60000.00
2019-06-10T10:34:38.856Z,39424.00
2019-06-10T10:35:38.915Z,37472.00
2019-06-10T10:36:38.809Z,35680.00
2019-06-10T10:37:38.757Z,34048.00
2019-06-10T10:38:38.797Z,33600.00
2019-06-10T10:39:38.690Z,31552.00
2019-06-10T10:40:38.664Z,30816.00
2019-06-10T10:41:38.786Z,28960.00
2019-06-10T10:42:44.810Z,30240.00
2019-06-10T10:43:38.557Z,35072.00
2019-06-10T10:44:38.525Z,60256.00
2019-06-10T10:45:38.493Z,74688.00
2019-06-10T10:46:38.458Z,42304.00
2019-06-10T10:47:38.907Z,38208.00
2019-06-10T10:48:38.395Z,33888.00
2019-06-10T10:49:38.364Z,28480.00
2019-06-10T10:50:38.328Z,23680.00
2019-06-10T10:51:38.426Z,21664.00
2019-06-10T10:52:38.258Z,21888.00
2019-06-10T10:53:38.665Z,23200.00
2019-06-10T10:54:38.190Z,23104.00
2019-06-10T10:55:38.157Z,22848.00
2019-06-10T10:56:38.124Z,22624.00
2019-06-10T10:57:38.090Z,20896.00
2019-06-10T10:58:38.060Z,18304.00
2019-06-10T10:59:38.044Z,15016.00
2019-06-10T11:00:37.989Z,13024.00
2019-06-10T11:01:37.990Z,12340.00
2019-06-10T11:02:37.917Z,12436.00
2019-06-10T11:03:37.883Z,13012.00
2019-06-10T11:04:37.854Z,13576.00
2019-06-10T11:05:37.833Z,12860.00
2019-06-10T11:06:37.785Z,10804.00
2019-06-10T11:07:37.745Z,10096.00
2019-06-10T11:08:37.707Z,10980.00
2019-06-10T11:09:37.673Z,10952.00
2019-06-10T11:10:37.640Z,10968.00
2019-06-10T11:11:37.624Z,10448.00
2019-06-10T11:12:37.565Z,9820.00
2019-06-10T11:13:37.530Z,9260.00
2019-06-10T11:14:37.495Z,9116.00
2019-06-10T11:15:37.454Z,9088.00
2019-06-10T11:16:37.422Z,8840.00
2019-06-10T11:17:37.573Z,8176.00
2019-06-10T11:18:37.350Z,7524.00
2019-06-10T11:19:37.307Z,6964.00
2019-06-10T11:20:37.280Z,6672.00
2019-06-10T11:21:37.231Z,6640.00
2019-06-10T11:22:37.196Z,6820.00
2019-06-10T11:23:37.187Z,6928.00
2019-06-10T11:24:41.169Z,6968.00
2019-06-10T11:25:37.091Z,6900.00
2019-06-10T11:26:37.046Z,6712.00
2019-06-10T11:27:37.008Z,6280.00
2019-06-10T11:28:37.247Z,5880.00
2019-06-10T11:29:36.929Z,5208.00
2019-06-10T11:30:36.890Z,4692.00
2019-06-10T11:31:36.850Z,4240.00
2019-06-10T11:32:36.811Z,3976.00
2019-06-10T11:33:36.772Z,3956.00
2019-06-10T11:34:36.758Z,4088.00
2019-06-10T11:35:36.699Z,4300.00
2019-06-10T11:36:36.712Z,4292.00
2019-06-10T11:37:36.619Z,4288.00
2019-06-10T11:38:36.578Z,4328.00
2019-06-10T11:39:38.672Z,3940.00
2019-06-10T11:40:36.496Z,3416.00
2019-06-10T11:41:36.458Z,2972.00
2019-06-10T11:42:36.446Z,2780.00
2019-06-10T11:43:36.377Z,2720.00
2019-06-10T11:44:36.335Z,2816.00
2019-06-10T11:45:36.298Z,2968.00
2019-06-10T11:46:36.257Z,3452.00
2019-06-10T11:47:36.220Z,3640.00
2019-06-10T11:48:36.213Z,3984.00
2019-06-10T11:49:36.135Z,4036.00
2019-06-10T11:50:36.094Z,4596.00
2019-06-10T11:51:36.442Z,5012.00
2019-06-10T11:52:36.013Z,5440.00
2019-06-10T11:53:35.974Z,5764.00
2019-06-10T11:54:50.917Z,6660.00
2019-06-10T11:55:35.893Z,6672.00
2019-06-10T11:56:35.853Z,6376.00
2019-06-10T11:57:35.834Z,5616.00
2019-06-10T11:58:35.770Z,4236.00
2019-06-10T11:59:35.732Z,2804.00
2019-06-10T12:00:35.693Z,1964.00
2019-06-10T12:01:35.651Z,1588.00
2019-06-10T12:02:35.648Z,1464.00
2019-06-10T12:03:35.569Z,1856.00
2019-06-10T12:04:35.531Z,2568.00
2019-06-10T12:05:35.487Z,3196.00
2019-06-10T12:06:35.445Z,3596.00
2019-06-10T12:07:35.404Z,3684.00
2019-06-10T12:08:35.390Z,3616.00
2019-06-10T12:09:35.323Z,3612.00
2019-06-10T12:10:35.284Z,3408.00
2019-06-10T12:11:35.245Z,3240.00
2019-06-10T12:12:35.205Z,3296.00
2019-06-10T12:13:35.164Z,3644.00
2019-06-10T12:14:35.142Z,4140.00
2019-06-10T12:16:09.655Z,5016.00
2019-06-10T12:17:46.896Z,6692.00
2019-06-10T12:18:34.954Z,7828.00
2019-06-10T12:19:34.917Z,8956.00
2019-06-10T12:20:35.062Z,10192.00
2019-06-10T12:21:34.836Z,12004.00
2019-06-10T12:22:34.791Z,14340.00
2019-06-10T12:23:34.760Z,16768.00
2019-06-10T12:24:34.710Z,19968.00
2019-06-10T12:25:39.338Z,26272.00
2019-06-10T12:26:34.647Z,32256.00
2019-06-10T12:27:34.595Z,39200.00
2019-06-10T12:28:34.548Z,33568.00
2019-06-10T12:29:35.009Z,31456.00
2019-06-10T12:30:34.525Z,28032.00
2019-06-10T12:31:34.778Z,23744.00
2019-06-10T12:32:34.424Z,20480.00
2019-06-10T12:33:34.343Z,19040.00
2019-06-10T12:34:34.307Z,19296.00
2019-06-10T12:35:42.296Z,19200.00
2019-06-10T12:36:34.234Z,18912.00
2019-06-10T12:37:34.534Z,18592.00
2019-06-10T12:38:34.189Z,17664.00
2019-06-10T12:39:35.040Z,15428.00
2019-06-10T12:40:34.072Z,13968.00
2019-06-10T12:41:34.039Z,13348.00
2019-06-10T12:42:33.989Z,12648.00
2019-06-10T12:43:33.951Z,11672.00
2019-06-10T12:44:33.942Z,10556.00
2019-06-10T12:45:33.874Z,10036.00
2019-06-10T12:46:33.833Z,10232.00
2019-06-10T12:47:34.115Z,11152.00
2019-06-10T12:48:34.428Z,12012.00
2019-06-10T12:49:33.718Z,12364.00
2019-06-10T12:50:33.700Z,11684.00
2019-06-10T12:51:33.637Z,10224.00
2019-06-10T12:52:33.599Z,8744.00
2019-06-10T12:53:33.691Z,7536.00
2019-06-10T12:54:33.519Z,6628.00
2019-06-10T12:55:42.309Z,5816.00
2019-06-10T12:56:33.464Z,5456.00
2019-06-10T12:57:33.403Z,5368.00
2019-06-10T12:58:33.698Z,5492.00
2019-06-10T12:59:33.321Z,5524.00
2019-06-10T13:00:33.336Z,5536.00
2019-06-10T13:01:33.245Z,5508.00
2019-06-10T13:02:34.637Z,5456.00
2019-06-10T13:03:33.939Z,5500.00
2019-06-10T13:04:33.124Z,5524.00
2019-06-10T13:05:33.292Z,5360.00
2019-06-10T13:06:33.044Z,4984.00
2019-06-10T13:07:33.009Z,4732.00
2019-06-10T13:08:33.216Z,4744.00
2019-06-10T13:09:33.835Z,4796.00
2019-06-10T13:10:33.336Z,4840.00
2019-06-10T13:11:33.414Z,5040.00
2019-06-10T13:12:33.352Z,5556.00
2019-06-10T13:13:32.922Z,6156.00
2019-06-10T13:14:32.786Z,6632.00
2019-06-10T13:15:32.954Z,6864.00
2019-06-10T13:16:32.646Z,6848.00
2019-06-10T13:17:32.608Z,6920.00
2019-06-10T13:18:32.567Z,7580.00
2019-06-10T13:19:34.340Z,8552.00
2019-06-10T13:20:32.509Z,9628.00
2019-06-10T13:21:32.957Z,10700.00
2019-06-10T13:22:32.529Z,12156.00
2019-06-10T13:23:35.130Z,14432.00
2019-06-10T13:24:33.780Z,17696.00
2019-06-10T13:25:33.462Z,20000.00
2019-06-10T13:26:35.165Z,19584.00
2019-06-10T13:27:32.204Z,18400.00
2019-06-10T13:28:32.610Z,17728.00
2019-06-10T13:29:33.174Z,18720.00
2019-06-10T13:30:34.185Z,20992.00
2019-06-10T13:31:33.672Z,21056.00
2019-06-10T13:34:08.849Z,17632.00
2019-06-10T13:35:06.035Z,18176.00
2019-06-10T13:36:05.436Z,17280.00
2019-06-10T13:37:06.788Z,18016.00
2019-06-10T13:38:05.678Z,17728.00
2019-06-10T13:39:06.647Z,15536.00
2019-06-10T13:40:06.709Z,12728.00
2019-06-10T13:41:04.257Z,10652.00
2019-06-10T13:42:07.750Z,10132.00
2019-06-10T13:43:03.906Z,10412.00
2019-06-10T13:44:04.184Z,10404.00
2019-06-10T13:45:06.375Z,10540.00
2019-06-10T13:46:06.692Z,10972.00
2019-06-10T13:47:07.054Z,11564.00
2019-06-10T13:48:07.791Z,12160.00
2019-06-10T13:49:06.905Z,12028.00
2019-06-10T13:50:06.218Z,11568.00
2019-06-10T13:51:08.327Z,11652.00
2019-06-10T13:52:07.906Z,12352.00
2019-06-10T13:53:04.864Z,13552.00
2019-06-10T13:54:05.373Z,14960.00
2019-06-10T13:55:04.015Z,16152.00
2019-06-10T13:56:30.425Z,17248.00
2019-06-10T13:57:05.003Z,18784.00
2019-06-10T13:58:06.184Z,20992.00
2019-06-10T13:59:04.167Z,23552.00
2019-06-10T14:00:05.619Z,27808.00
2019-06-10T14:01:05.305Z,27200.00
2019-06-10T14:02:06.380Z,24640.00
2019-06-10T14:03:06.341Z,21728.00
2019-06-10T14:04:09.745Z,19648.00
2019-06-10T14:05:10.279Z,19904.00
2019-06-10T14:06:12.958Z,21536.00
2019-06-10T14:07:07.385Z,22720.00
2019-06-10T14:08:05.415Z,22880.00
2019-06-10T14:09:07.685Z,21440.00
2019-06-10T14:10:07.252Z,19328.00
2019-06-10T14:11:06.985Z,17856.00
2019-06-10T14:12:03.838Z,17152.00
2019-06-10T14:13:03.971Z,16288.00
2019-06-10T14:14:03.706Z,15396.00
2019-06-10T14:15:04.528Z,14172.00
2019-06-10T14:16:03.451Z,12664.00
2019-06-10T14:17:03.807Z,11476.00
2019-06-10T14:18:05.213Z,11004.00
2019-06-10T14:19:05.855Z,10020.00
2019-06-10T14:20:03.631Z,8148.00
2019-06-10T14:21:05.024Z,6388.00
2019-06-10T14:22:04.462Z,5616.00
2019-06-10T14:23:02.578Z,5668.00
2019-06-10T14:24:02.230Z,5988.00
2019-06-10T14:25:03.871Z,6164.00
2019-06-10T14:26:03.226Z,6172.00
2019-06-10T14:27:03.298Z,5936.00
2019-06-10T14:28:04.360Z,5636.00
2019-06-10T14:29:03.027Z,5512.00
2019-06-10T14:30:04.600Z,5484.00
2019-06-10T14:31:05.129Z,5424.00
2019-06-10T14:32:02.629Z,5428.00
2019-06-10T14:33:02.889Z,5480.00
2019-06-10T14:34:04.278Z,5376.00
2019-06-10T14:35:01.756Z,4948.00
2019-06-10T14:37:39.139Z,3512.00
2019-06-10T14:38:33.430Z,2948.00
2019-06-10T14:39:33.641Z,2544.00
2019-06-10T14:40:33.386Z,2516.00
2019-06-10T14:41:33.617Z,2708.00
2019-06-10T14:42:33.266Z,2808.00
2019-06-10T14:43:33.435Z,2752.00
2019-06-10T14:44:33.188Z,2660.00
2019-06-10T14:45:33.233Z,2696.00
2019-06-10T14:46:33.108Z,2884.00
2019-06-10T14:47:34.497Z,3300.00
2019-06-10T14:48:33.743Z,3884.00
2019-06-10T14:49:33.110Z,4296.00
2019-06-10T14:50:32.945Z,4404.00
2019-06-10T14:51:32.917Z,3756.00
2019-06-10T14:52:32.864Z,3544.00
2019-06-10T14:53:33.739Z,3248.00
2019-06-10T14:54:32.783Z,3468.00
2019-06-10T14:55:34.018Z,4320.00
2019-06-10T14:56:33.281Z,5296.00
2019-06-10T14:57:33.470Z,6112.00
